Newdale, Idaho
Current Conditions -  °F | °C
As of 7:53 AM on Sunday 23 Nov 2014 (Local Time) from KRXE Reporting Station
Clear Clear  
Wind Chill: 17°   Ceiling: Unl
Heat Index: 24°   Visibility: 10mi
Dew Point: 21°   Wind: 6mph
Humidity: 88%   Direction: 180°S
Pressure: 30.05"   Gusts: NA
Location:  43.89°N, 111.6°W
Report Text: KRXE 231453Z AUTO 18005KT 10SM CLR M04/M06 A3005 RMK AO2 SLP208 I3001 T10441061 51022
Loading
Personal Weather Stations






























Interactive Weather Map New forecast layout! Learn more

10-Day Weather Forecast

Advertisements
Track Severe Weather on mobile